createdAt,value
2023-04-10T09:07:07.693Z,78.40
2023-04-10T09:09:34.869Z,86.40
2023-04-10T09:12:03.970Z,89.60
2023-04-10T09:14:33.351Z,89.10
2023-04-10T09:17:14.762Z,87.00
2023-04-10T09:19:42.535Z,87.40
2023-04-10T09:22:09.929Z,87.70
2023-04-10T09:24:42.313Z,87.50
2023-04-10T09:27:09.886Z,87.60
2023-04-10T09:29:54.983Z,89.30
2023-04-10T09:32:51.654Z,87.80
2023-04-10T09:35:19.795Z,85.30
2023-04-10T09:37:47.183Z,85.60
2023-04-10T09:40:24.260Z,86.80
2023-04-10T09:42:52.096Z,86.60
2023-04-10T09:45:20.956Z,86.00
2023-04-10T09:48:08.491Z,84.90
2023-04-10T09:50:41.244Z,84.80
2023-04-10T09:53:28.822Z,86.10
2023-04-10T09:55:56.735Z,88.50
2023-04-10T09:58:25.535Z,86.50
2023-04-10T10:00:53.300Z,84.70
2023-04-10T10:03:23.444Z,86.40
2023-04-10T10:05:51.897Z,86.90
2023-04-10T10:08:19.134Z,84.30
2023-04-10T10:10:52.644Z,85.50
2023-04-10T10:13:34.844Z,85.10
2023-04-10T10:16:22.496Z,83.20
2023-04-10T10:19:05.591Z,85.40
2023-04-10T10:21:34.548Z,85.90
2023-04-10T10:24:06.039Z,83.60
2023-04-10T10:26:35.156Z,84.60
2023-04-10T10:29:11.037Z,84.40
2023-04-10T10:31:39.098Z,83.50
2023-04-10T10:34:09.535Z,85.50
2023-04-10T10:36:38.376Z,83.00
2023-04-10T10:39:17.968Z,83.10
2023-04-10T10:41:52.234Z,81.70
2023-04-10T10:44:34.670Z,81.10
2023-04-10T10:47:20.939Z,81.50
2023-04-10T10:50:00.577Z,82.80
2023-04-10T10:52:43.094Z,80.00
2023-04-10T10:55:22.376Z,81.10
2023-04-10T10:57:54.746Z,81.20
2023-04-10T11:00:26.670Z,80.10
2023-04-10T11:03:09.279Z,80.30
2023-04-10T11:05:57.521Z,82.30
2023-04-10T11:08:33.767Z,82.50
2023-04-10T11:11:08.128Z,79.40
2023-04-10T11:13:37.553Z,78.30
2023-04-10T11:16:07.019Z,76.30
2023-04-10T11:19:13.294Z,77.40
2023-04-10T11:22:08.923Z,78.30
2023-04-10T11:25:00.973Z,76.50
2023-04-10T11:27:51.944Z,77.70
2023-04-10T11:30:29.308Z,79.10
2023-04-10T11:32:57.361Z,77.90
2023-04-10T11:35:27.145Z,77.60
2023-04-10T11:38:09.658Z,78.50
2023-04-10T11:40:36.809Z,75.70
2023-04-10T11:43:16.445Z,75.20
2023-04-10T11:45:43.675Z,76.30
2023-04-10T11:48:11.003Z,76.30
2023-04-10T11:50:38.243Z,79.20
2023-04-10T11:53:21.982Z,77.20
2023-04-10T11:55:51.689Z,74.90
2023-04-10T11:58:23.498Z,75.10
2023-04-10T12:01:04.655Z,73.20
2023-04-10T12:03:40.325Z,73.90
2023-04-10T12:06:10.613Z,76.70
2023-04-10T12:08:42.672Z,76.00
2023-04-10T12:11:11.147Z,75.70
2023-04-10T12:13:38.394Z,77.60
2023-04-10T12:16:10.030Z,79.50
2023-04-10T12:18:37.963Z,77.90
2023-04-10T12:21:06.905Z,78.80
2023-04-10T12:23:39.492Z,77.50
2023-04-10T12:26:17.449Z,76.20
2023-04-10T12:28:55.501Z,77.20
2023-04-10T12:31:34.368Z,77.30
2023-04-10T12:34:02.751Z,76.80
2023-04-10T12:36:31.184Z,77.70
2023-04-10T12:39:05.685Z,77.70
2023-04-10T12:41:34.433Z,75.60
2023-04-10T12:44:09.883Z,80.20
2023-04-10T12:46:37.262Z,78.10
2023-04-10T12:49:14.426Z,75.00
2023-04-10T12:51:49.103Z,75.00
2023-04-10T12:54:29.414Z,78.20
2023-04-10T12:56:57.939Z,76.30
2023-04-10T12:59:26.678Z,76.10
2023-04-10T13:01:54.692Z,76.00
2023-04-10T13:04:22.331Z,74.80
2023-04-10T13:06:53.039Z,74.60
2023-04-10T13:09:20.450Z,76.20
2023-04-10T13:11:48.548Z,76.90
2023-04-10T13:14:18.118Z,77.40
2023-04-10T13:16:45.315Z,76.60
2023-04-10T13:19:13.300Z,76.20
2023-04-10T13:21:40.540Z,73.20
2023-04-10T13:24:07.682Z,74.20
2023-04-10T13:26:34.780Z,75.10
2023-04-10T13:29:01.824Z,77.30
2023-04-10T13:31:29.111Z,76.70
2023-04-10T13:33:56.332Z,75.20
2023-04-10T13:36:23.724Z,75.50
2023-04-10T13:38:51.196Z,74.00
2023-04-10T13:41:18.339Z,76.30
2023-04-10T13:43:45.441Z,75.50
2023-04-10T13:46:12.591Z,74.50
2023-04-10T13:48:41.645Z,74.60
2023-04-10T13:51:09.099Z,74.10
2023-04-10T13:53:36.490Z,75.40
2023-04-10T13:56:03.668Z,75.30
2023-04-10T13:58:32.380Z,75.30
2023-04-10T14:00:59.768Z,74.90
2023-04-10T14:03:27.491Z,73.40
2023-04-10T14:05:54.862Z,73.10
2023-04-10T14:08:21.969Z,74.10
2023-04-10T14:10:51.153Z,72.90
2023-04-10T14:13:19.048Z,73.40
2023-04-10T14:15:46.775Z,74.20
